馬公航空站 - ATIS

METAR RCQC 191700Z 22005KT 9999 FEW012 SCT040 BKN100 25/24 Q1009 RMK A2980=

站台狀態:Online
最後更新:2024-04-20 01:30:03